Time;durP1;ratioP1;P1;durP2;ratioP2;P2;SDS_P1;SDS_P2;PMS_P1;PMS_P2;Temp;Humidity;BMP_temperature;BMP_pressure;BME280_temperature;BME280_humidity;BME280_pressure;Samples;Min_cycle;Max_cycle;Signal;HPM_P1;HPM_P2
2024/01/15 00:02:09;;;;;;;303.35;31.35;;;;;;;;;;4998191;28;20109;-43
2024/01/15 00:04:40;;;;;;;332.60;36.88;;;;;;;;;;5009057;28;20109;-45
2024/01/15 00:07:10;;;;;;;425.98;47.22;;;;;;;;;;5001335;28;20033;-45
2024/01/15 00:09:37;;;;;;;380.02;39.88;;;;;;;;;;5007711;28;20037;-46
2024/01/15 00:12:04;;;;;;;589.33;59.88;;;;;;;;;;4991796;28;20116;-46
2024/01/15 00:14:31;;;;;;;466.35;47.95;;;;;;;;;;5010357;28;20026;-41
2024/01/15 00:16:58;;;;;;;517.63;54.05;;;;;;;;;;5010915;28;20080;-43
2024/01/15 00:19:26;;;;;;;359.05;35.70;;;;;;;;;;4997964;28;20030;-42
2024/01/15 00:21:53;;;;;;;246.70;25.85;;;;;;;;;;5011372;28;20041;-42
2024/01/15 00:24:20;;;;;;;209.13;24.13;;;;;;;;;;4998223;28;20475;-42
2024/01/15 00:26:47;;;;;;;215.48;23.40;;;;;;;;;;5011226;28;20133;-41
2024/01/15 00:29:15;;;;;;;218.50;26.27;;;;;;;;;;5011211;28;20507;-42
2024/01/15 00:31:42;;;;;;;199.13;20.75;;;;;;;;;;5011198;28;20084;-41
2024/01/15 00:34:09;;;;;;;187.52;22.40;;;;;;;;;;5010992;28;20033;-42
2024/01/15 00:36:35;;;;;;;207.32;23.95;;;;;;;;;;5011127;28;20488;-42
2024/01/15 00:39:04;;;;;;;252.75;26.42;;;;;;;;;;4996404;28;20026;-42
2024/01/15 00:41:32;;;;;;;261.92;31.58;;;;;;;;;;5003335;28;20037;-41
2024/01/15 00:43:59;;;;;;;228.07;28.00;;;;;;;;;;5008915;28;20050;-42
2024/01/15 00:46:26;;;;;;;243.43;28.38;;;;;;;;;;5010956;28;20030;-41
2024/01/15 00:48:53;;;;;;;198.52;25.48;;;;;;;;;;5008778;28;20124;-46
2024/01/15 00:51:20;;;;;;;223.35;24.42;;;;;;;;;;5010863;28;20034;-41
2024/01/15 00:53:48;;;;;;;198.07;22.52;;;;;;;;;;5011003;28;20026;-43
2024/01/15 00:56:14;;;;;;;214.43;24.08;;;;;;;;;;5009282;28;20049;-42
2024/01/15 00:58:41;;;;;;;181.55;19.42;;;;;;;;;;5014839;28;20349;-41
2024/01/15 01:01:08;;;;;;;153.57;17.60;;;;;;;;;;5014521;28;20044;-41
2024/01/15 01:03:35;;;;;;;161.63;18.77;;;;;;;;;;5014590;28;20030;-41
2024/01/15 01:06:02;;;;;;;165.40;19.15;;;;;;;;;;5013609;28;20026;-42
2024/01/15 01:08:29;;;;;;;168.93;17.52;;;;;;;;;;5012501;28;20026;-43
2024/01/15 01:10:57;;;;;;;155.27;20.58;;;;;;;;;;5005091;28;20362;-43
2024/01/15 01:13:24;;;;;;;149.15;20.13;;;;;;;;;;5010426;28;20041;-41
2024/01/15 01:15:51;;;;;;;192.32;21.38;;;;;;;;;;5010787;28;20175;-42
2024/01/15 01:18:18;;;;;;;196.95;23.70;;;;;;;;;;4987317;28;20565;-42
2024/01/15 01:20:45;;;;;;;181.10;22.48;;;;;;;;;;5009563;28;20025;-42
2024/01/15 01:23:12;;;;;;;258.10;26.25;;;;;;;;;;5012548;28;20032;-42
2024/01/15 01:25:39;;;;;;;226.95;28.83;;;;;;;;;;5011937;28;20029;-44
2024/01/15 01:28:06;;;;;;;208.82;26.67;;;;;;;;;;5012207;28;20542;-44
2024/01/15 01:30:33;;;;;;;229.52;29.33;;;;;;;;;;5012327;28;20021;-41
2024/01/15 01:32:59;;;;;;;243.65;30.70;;;;;;;;;;5012941;28;20026;-42
2024/01/15 01:35:26;;;;;;;252.13;30.83;;;;;;;;;;5013383;28;20029;-41
2024/01/15 01:37:53;;;;;;;270.10;31.77;;;;;;;;;;5013430;28;20535;-41
2024/01/15 01:40:20;;;;;;;208.30;29.73;;;;;;;;;;5013599;28;20029;-41
2024/01/15 01:42:49;;;;;;;192.43;27.55;;;;;;;;;;5013472;28;20088;-41
2024/01/15 01:45:16;;;;;;;232.23;28.00;;;;;;;;;;5009851;28;20045;-40
2024/01/15 01:47:43;;;;;;;241.10;31.40;;;;;;;;;;5012439;28;20045;-41
2024/01/15 01:50:11;;;;;;;221.45;29.80;;;;;;;;;;5008839;28;20109;-41
2024/01/15 01:52:38;;;;;;;188.50;27.95;;;;;;;;;;5009487;28;20032;-41
2024/01/15 01:55:06;;;;;;;219.23;30.08;;;;;;;;;;5009733;28;20456;-41
2024/01/15 01:57:34;;;;;;;232.82;31.52;;;;;;;;;;5008452;28;20033;-42
2024/01/15 02:00:03;;;;;;;184.60;30.30;;;;;;;;;;5008868;28;20060;-41
2024/01/15 02:02:31;;;;;;;199.75;31.50;;;;;;;;;;5010269;28;20121;-43
2024/01/15 02:04:58;;;;;;;210.35;29.83;;;;;;;;;;5007310;28;20084;-42
2024/01/15 02:07:26;;;;;;;227.68;31.58;;;;;;;;;;5008777;28;20414;-42
2024/01/15 02:09:53;;;;;;;209.65;30.77;;;;;;;;;;5008494;28;20030;-42
2024/01/15 02:12:20;;;;;;;219.93;31.05;;;;;;;;;;5012902;28;20547;-41
2024/01/15 02:14:47;;;;;;;269.33;33.47;;;;;;;;;;5012523;28;20026;-41
2024/01/15 02:17:14;;;;;;;259.08;32.33;;;;;;;;;;5012717;28;20496;-41
2024/01/15 02:19:41;;;;;;;246.77;33.05;;;;;;;;;;5012667;28;20484;-41
2024/01/15 02:22:08;;;;;;;224.98;32.13;;;;;;;;;;5011530;28;20566;-42
2024/01/15 02:24:35;;;;;;;263.38;34.42;;;;;;;;;;5010319;28;20022;-41
2024/01/15 02:27:02;;;;;;;232.70;34.33;;;;;;;;;;5009564;28;20385;-43
2024/01/15 02:29:29;;;;;;;243.45;34.55;;;;;;;;;;5012451;28;20592;-43
2024/01/15 02:31:56;;;;;;;248.82;34.50;;;;;;;;;;5010362;28;20395;-41
2024/01/15 02:34:23;;;;;;;239.70;36.05;;;;;;;;;;5011302;28;20033;-41
2024/01/15 02:36:50;;;;;;;278.88;38.00;;;;;;;;;;5010345;28;20026;-40
2024/01/15 02:39:17;;;;;;;267.50;36.67;;;;;;;;;;5011957;28;20371;-41
2024/01/15 02:41:44;;;;;;;246.15;34.45;;;;;;;;;;4988819;28;20066;-43
2024/01/15 02:44:11;;;;;;;231.50;33.97;;;;;;;;;;5011499;28;20022;-42
2024/01/15 02:46:38;;;;;;;212.15;33.63;;;;;;;;;;5010922;28;20026;-40
2024/01/15 02:49:05;;;;;;;211.18;32.25;;;;;;;;;;5009511;28;20454;-40
2024/01/15 02:51:32;;;;;;;219.90;32.10;;;;;;;;;;5012094;28;20022;-40
2024/01/15 02:53:59;;;;;;;229.00;33.25;;;;;;;;;;5011972;28;20419;-40
2024/01/15 02:56:26;;;;;;;219.73;34.17;;;;;;;;;;5010946;28;20075;-40
2024/01/15 02:58:53;;;;;;;194.43;30.75;;;;;;;;;;5011537;28;20044;-40
2024/01/15 03:01:20;;;;;;;164.73;29.45;;;;;;;;;;5011996;28;20028;-41
2024/01/15 03:03:47;;;;;;;159.57;27.38;;;;;;;;;;4994488;28;20388;-40
2024/01/15 03:06:14;;;;;;;228.25;32.63;;;;;;;;;;5012011;28;20084;-40
2024/01/15 03:08:41;;;;;;;169.98;26.02;;;;;;;;;;5011950;28;20377;-41
2024/01/15 03:11:08;;;;;;;147.82;22.48;;;;;;;;;;5011995;28;20428;-40
2024/01/15 03:13:37;;;;;;;129.75;23.75;;;;;;;;;;5011615;28;20041;-41
2024/01/15 03:16:05;;;;;;;143.25;24.70;;;;;;;;;;5010538;28;20061;-40
2024/01/15 03:18:32;;;;;;;123.15;23.23;;;;;;;;;;5010809;28;20109;-40
2024/01/15 03:21:01;;;;;;;101.18;18.70;;;;;;;;;;5011329;28;20108;-41
2024/01/15 03:23:28;;;;;;;86.88;17.77;;;;;;;;;;5011561;28;20036;-39
2024/01/15 03:25:55;;;;;;;81.80;15.27;;;;;;;;;;5010957;28;20039;-41
2024/01/15 03:28:22;;;;;;;133.52;19.70;;;;;;;;;;5011235;28;20132;-40
2024/01/15 03:30:49;;;;;;;129.38;18.52;;;;;;;;;;5011398;28;20036;-40
2024/01/15 03:33:16;;;;;;;113.85;17.63;;;;;;;;;;5011553;28;20034;-40
2024/01/15 03:35:43;;;;;;;108.15;17.42;;;;;;;;;;5011422;28;20041;-39
2024/01/15 03:38:10;;;;;;;103.00;14.88;;;;;;;;;;5008833;28;20029;-40
2024/01/15 03:40:37;;;;;;;86.10;13.38;;;;;;;;;;5011187;28;20042;-40
2024/01/15 03:43:04;;;;;;;163.52;20.67;;;;;;;;;;5011276;28;20032;-40
2024/01/15 03:45:31;;;;;;;106.72;14.77;;;;;;;;;;5008738;28;20080;-40
2024/01/15 03:47:58;;;;;;;218.95;26.20;;;;;;;;;;5010761;28;20144;-42
2024/01/15 03:50:25;;;;;;;196.63;20.33;;;;;;;;;;5010439;28;20030;-41
2024/01/15 03:52:52;;;;;;;143.07;15.23;;;;;;;;;;5007736;28;20030;-40
2024/01/15 03:55:19;;;;;;;110.57;11.63;;;;;;;;;;5011087;28;20112;-41
2024/01/15 03:57:46;;;;;;;90.63;9.70;;;;;;;;;;4993408;28;20031;-40
2024/01/15 04:00:17;;;;;;;70.93;9.50;;;;;;;;;;5011178;28;20060;-40
2024/01/15 04:02:44;;;;;;;56.13;5.95;;;;;;;;;;5010831;28;20046;-40
2024/01/15 04:05:11;;;;;;;35.10;4.10;;;;;;;;;;5010924;28;20395;-40
2024/01/15 04:07:38;;;;;;;26.30;3.30;;;;;;;;;;5011076;28;20040;-40
2024/01/15 04:10:05;;;;;;;24.38;2.60;;;;;;;;;;5011001;28;20026;-41
2024/01/15 04:12:32;;;;;;;16.95;2.67;;;;;;;;;;5010805;28;20030;-40
2024/01/15 04:14:59;;;;;;;15.60;2.20;;;;;;;;;;5011006;28;20026;-40
2024/01/15 04:17:26;;;;;;;21.30;2.70;;;;;;;;;;4993196;28;20462;-40
2024/01/15 04:19:53;;;;;;;14.57;1.67;;;;;;;;;;5011015;28;20030;-40
2024/01/15 04:22:20;;;;;;;12.70;1.65;;;;;;;;;;5010986;28;20053;-40
2024/01/15 04:24:47;;;;;;;12.23;1.90;;;;;;;;;;5010705;28;20032;-40
2024/01/15 04:27:14;;;;;;;10.93;1.42;;;;;;;;;;5010656;28;20060;-40
2024/01/15 04:29:41;;;;;;;7.90;1.23;;;;;;;;;;5011045;28;20396;-40
2024/01/15 04:32:08;;;;;;;9.48;1.48;;;;;;;;;;5007740;28;20026;-41
2024/01/15 04:34:35;;;;;;;11.38;1.38;;;;;;;;;;5005910;28;20046;-41
2024/01/15 04:37:02;;;;;;;15.30;1.77;;;;;;;;;;5003874;28;20503;-40
2024/01/15 04:39:29;;;;;;;15.90;1.38;;;;;;;;;;5004787;28;20040;-41
2024/01/15 04:41:56;;;;;;;12.73;1.23;;;;;;;;;;5006070;28;21600;-40
2024/01/15 04:44:23;;;;;;;7.70;1.20;;;;;;;;;;5012208;28;20116;-41
2024/01/15 04:46:50;;;;;;;10.13;1.40;;;;;;;;;;5014640;28;20030;-40
2024/01/15 04:49:17;;;;;;;12.90;1.80;;;;;;;;;;5014519;28;20129;-41
2024/01/15 04:51:44;;;;;;;9.00;1.58;;;;;;;;;;5014424;28;20053;-40
2024/01/15 04:54:11;;;;;;;21.13;1.70;;;;;;;;;;5014423;28;20026;-41
2024/01/15 04:56:38;;;;;;;20.67;1.95;;;;;;;;;;5012696;28;20434;-40
2024/01/15 04:59:05;;;;;;;22.90;1.92;;;;;;;;;;4995478;28;20034;-42
2024/01/15 05:01:35;;;;;;;19.70;1.65;;;;;;;;;;4999643;28;20087;-42
2024/01/15 05:04:02;;;;;;;19.13;1.90;;;;;;;;;;5002141;28;20487;-41
2024/01/15 05:06:29;;;;;;;19.38;1.80;;;;;;;;;;5014740;28;20040;-41
2024/01/15 05:08:56;;;;;;;19.35;1.70;;;;;;;;;;5014833;28;20487;-40
2024/01/15 05:11:23;;;;;;;11.57;1.75;;;;;;;;;;5014748;28;20399;-40
2024/01/15 05:13:50;;;;;;;34.80;3.22;;;;;;;;;;5014655;28;20029;-40
2024/01/15 05:16:17;;;;;;;21.77;3.00;;;;;;;;;;5014699;28;20030;-41
2024/01/15 05:18:44;;;;;;;28.80;2.75;;;;;;;;;;5014723;28;20403;-40
2024/01/15 05:21:11;;;;;;;32.60;2.72;;;;;;;;;;4996997;28;20026;-41
2024/01/15 05:23:38;;;;;;;16.67;1.63;;;;;;;;;;5014465;28;20037;-40
2024/01/15 05:26:05;;;;;;;26.75;2.03;;;;;;;;;;5014429;28;20053;-40
2024/01/15 05:28:32;;;;;;;20.95;2.05;;;;;;;;;;5014390;28;20416;-40
2024/01/15 05:30:59;;;;;;;16.90;1.85;;;;;;;;;;5014347;28;20452;-40
2024/01/15 05:33:26;;;;;;;14.32;1.10;;;;;;;;;;5014541;28;20026;-42
2024/01/15 05:35:53;;;;;;;9.73;1.02;;;;;;;;;;5014297;28;20129;-41
2024/01/15 05:38:20;;;;;;;9.45;1.25;;;;;;;;;;5014267;28;20034;-41
2024/01/15 05:40:47;;;;;;;9.30;1.10;;;;;;;;;;5014339;28;20066;-40
2024/01/15 05:43:14;;;;;;;12.85;1.30;;;;;;;;;;5013877;28;20069;-41
2024/01/15 05:45:44;;;;;;;8.48;1.25;;;;;;;;;;5014154;28;20084;-41
2024/01/15 05:48:12;;;;;;;9.88;1.10;;;;;;;;;;5014185;28;20037;-41
2024/01/15 05:50:39;;;;;;;10.40;1.33;;;;;;;;;;5013947;28;20471;-41
2024/01/15 05:53:06;;;;;;;7.97;1.42;;;;;;;;;;5014207;28;20053;-41
2024/01/15 05:55:33;;;;;;;13.23;1.40;;;;;;;;;;5013947;28;20026;-41
2024/01/15 05:58:00;;;;;;;14.20;1.40;;;;;;;;;;5014076;28;20030;-40
2024/01/15 06:00:27;;;;;;;14.30;1.50;;;;;;;;;;5014000;28;20026;-41
2024/01/15 06:02:54;;;;;;;20.17;1.50;;;;;;;;;;5013537;28;20033;-41
2024/01/15 06:05:21;;;;;;;10.90;1.50;;;;;;;;;;5013827;28;20061;-41
2024/01/15 06:07:48;;;;;;;11.60;1.20;;;;;;;;;;5013746;28;20030;-41
2024/01/15 06:10:15;;;;;;;8.15;1.52;;;;;;;;;;5012762;28;20044;-41
2024/01/15 06:12:42;;;;;;;17.67;1.50;;;;;;;;;;5013812;28;20052;-41
2024/01/15 06:15:09;;;;;;;10.32;1.33;;;;;;;;;;5013520;28;20070;-40
2024/01/15 06:17:36;;;;;;;11.85;1.20;;;;;;;;;;4995845;28;20073;-41
2024/01/15 06:20:03;;;;;;;9.27;1.10;;;;;;;;;;5013485;28;20029;-41
2024/01/15 06:22:30;;;;;;;7.72;1.20;;;;;;;;;;5013543;28;20092;-41
2024/01/15 06:24:57;;;;;;;4.88;1.00;;;;;;;;;;5013345;28;20434;-41
2024/01/15 06:27:24;;;;;;;3.03;0.73;;;;;;;;;;5013203;28;20373;-40
2024/01/15 06:29:51;;;;;;;5.20;1.20;;;;;;;;;;5013389;28;20044;-42
2024/01/15 06:32:18;;;;;;;6.53;1.05;;;;;;;;;;5013436;28;20030;-41
2024/01/15 06:34:48;;;;;;;4.70;0.60;;;;;;;;;;5012924;28;20034;-41
2024/01/15 06:37:15;;;;;;;5.40;1.00;;;;;;;;;;4995469;28;20065;-41
2024/01/15 06:39:42;;;;;;;4.25;0.90;;;;;;;;;;5013108;28;20045;-41
2024/01/15 06:42:08;;;;;;;11.60;1.00;;;;;;;;;;5013284;28;20041;-41
2024/01/15 06:44:35;;;;;;;5.70;0.68;;;;;;;;;;5013060;28;20035;-41
2024/01/15 06:47:02;;;;;;;4.75;0.40;;;;;;;;;;5013155;28;20104;-40
2024/01/15 06:49:30;;;;;;;6.35;0.77;;;;;;;;;;5012771;28;20064;-41
2024/01/15 06:51:57;;;;;;;4.80;0.80;;;;;;;;;;5013103;28;20026;-40
2024/01/15 06:54:25;;;;;;;5.28;0.75;;;;;;;;;;5012234;28;20126;-41
2024/01/15 06:56:53;;;;;;;9.98;1.13;;;;;;;;;;5012629;28;20038;-41
2024/01/15 06:59:20;;;;;;;16.75;1.20;;;;;;;;;;5012799;28;20534;-41
2024/01/15 07:01:47;;;;;;;6.55;1.00;;;;;;;;;;5012805;28;20053;-41
2024/01/15 07:04:13;;;;;;;6.90;0.75;;;;;;;;;;5012749;28;20025;-41
2024/01/15 07:06:40;;;;;;;10.88;1.10;;;;;;;;;;5012853;28;20033;-41
2024/01/15 07:09:08;;;;;;;6.65;0.80;;;;;;;;;;4995346;28;20033;-40
2024/01/15 07:11:35;;;;;;;8.85;1.00;;;;;;;;;;5012510;28;20050;-41
2024/01/15 07:14:02;;;;;;;12.10;1.00;;;;;;;;;;5012501;28;20480;-40
2024/01/15 07:16:29;;;;;;;13.30;1.00;;;;;;;;;;5012438;28;20038;-40
2024/01/15 07:18:56;;;;;;;16.70;1.23;;;;;;;;;;5012765;28;20037;-41
2024/01/15 07:21:23;;;;;;;10.52;1.20;;;;;;;;;;5012404;28;20592;-40
2024/01/15 07:23:50;;;;;;;11.63;1.25;;;;;;;;;;5012183;28;20041;-40
2024/01/15 07:26:17;;;;;;;7.70;1.42;;;;;;;;;;5012198;28;20054;-40
2024/01/15 07:28:44;;;;;;;5.55;0.90;;;;;;;;;;5012323;28;20049;-40
2024/01/15 07:31:11;;;;;;;7.40;1.05;;;;;;;;;;5012404;28;20029;-41
2024/01/15 07:33:38;;;;;;;5.97;1.05;;;;;;;;;;5012301;28;20033;-41
2024/01/15 07:36:05;;;;;;;5.25;1.08;;;;;;;;;;5012311;28;20037;-41
2024/01/15 07:38:32;;;;;;;14.68;1.00;;;;;;;;;;5012348;28;20153;-40
2024/01/15 07:40:59;;;;;;;8.40;0.70;;;;;;;;;;5012158;28;20028;-40
2024/01/15 07:43:27;;;;;;;10.43;0.82;;;;;;;;;;5012051;28;20033;-41
2024/01/15 07:45:54;;;;;;;3.42;0.77;;;;;;;;;;5012042;28;20052;-40
2024/01/15 07:48:21;;;;;;;5.30;0.70;;;;;;;;;;5012083;28;20034;-40
2024/01/15 07:50:48;;;;;;;5.43;0.80;;;;;;;;;;5012300;28;20018;-40
2024/01/15 07:53:15;;;;;;;11.77;1.13;;;;;;;;;;5012099;28;20104;-41
2024/01/15 07:55:42;;;;;;;7.18;0.82;;;;;;;;;;5012017;28;20364;-42
2024/01/15 07:58:09;;;;;;;7.40;1.52;;;;;;;;;;5012034;28;20180;-40
2024/01/15 08:00:36;;;;;;;4.53;0.70;;;;;;;;;;4994488;28;20088;-41
2024/01/15 08:03:03;;;;;;;3.00;0.52;;;;;;;;;;5012011;28;20496;-40
2024/01/15 08:05:31;;;;;;;6.15;0.80;;;;;;;;;;4994150;28;20673;-40
2024/01/15 08:07:58;;;;;;;8.48;0.73;;;;;;;;;;5011983;28;20444;-40
2024/01/15 08:10:25;;;;;;;8.23;0.90;;;;;;;;;;5011882;28;20029;-43
2024/01/15 08:12:52;;;;;;;6.85;0.90;;;;;;;;;;5011976;28;20026;-40
2024/01/15 08:15:19;;;;;;;24.50;1.67;;;;;;;;;;5011783;28;20030;-40
2024/01/15 08:17:46;;;;;;;27.98;1.35;;;;;;;;;;5011788;28;20029;-40
2024/01/15 08:20:13;;;;;;;17.42;1.70;;;;;;;;;;5011880;28;20049;-40
2024/01/15 08:22:40;;;;;;;12.13;1.15;;;;;;;;;;5011787;28;20036;-41
2024/01/15 08:25:07;;;;;;;12.10;1.65;;;;;;;;;;5011698;28;20030;-40
2024/01/15 08:27:34;;;;;;;22.48;2.20;;;;;;;;;;5011300;28;20050;-40
2024/01/15 08:30:01;;;;;;;13.27;1.35;;;;;;;;;;5011657;28;20470;-40
2024/01/15 08:32:28;;;;;;;10.70;1.25;;;;;;;;;;5011743;28;20094;-40
2024/01/15 08:34:55;;;;;;;9.25;1.17;;;;;;;;;;5011665;28;20480;-41
2024/01/15 08:37:21;;;;;;;9.85;1.20;;;;;;;;;;5011596;28;20038;-41
2024/01/15 08:39:48;;;;;;;10.65;1.10;;;;;;;;;;5011548;28;20026;-40
2024/01/15 08:42:15;;;;;;;10.65;1.00;;;;;;;;;;5011670;28;20026;-40
2024/01/15 08:44:43;;;;;;;8.07;1.17;;;;;;;;;;5011411;28;20018;-40
2024/01/15 08:47:10;;;;;;;5.70;1.02;;;;;;;;;;5011429;28;20033;-40
2024/01/15 08:49:37;;;;;;;6.85;0.98;;;;;;;;;;5011570;28;20117;-40
2024/01/15 08:52:04;;;;;;;7.18;0.88;;;;;;;;;;5011450;28;20022;-40
2024/01/15 08:54:31;;;;;;;10.93;1.05;;;;;;;;;;5011416;28;20037;-40
2024/01/15 08:56:59;;;;;;;3.95;0.70;;;;;;;;;;5011309;28;20030;-40
2024/01/15 08:59:26;;;;;;;5.60;0.80;;;;;;;;;;5011339;28;20121;-41
2024/01/15 09:01:53;;;;;;;3.95;0.60;;;;;;;;;;5011497;28;20148;-40
2024/01/15 09:04:20;;;;;;;6.82;0.90;;;;;;;;;;5011360;28;20068;-40
2024/01/15 09:06:47;;;;;;;6.35;1.05;;;;;;;;;;5011336;28;20058;-41
2024/01/15 09:09:14;;;;;;;5.35;1.13;;;;;;;;;;5011161;28;20038;-40
2024/01/15 09:11:42;;;;;;;11.20;1.00;;;;;;;;;;5011227;28;20026;-43
2024/01/15 09:14:09;;;;;;;8.13;1.30;;;;;;;;;;5011274;28;20026;-40
2024/01/15 09:16:36;;;;;;;20.60;1.42;;;;;;;;;;5011271;28;20029;-40
2024/01/15 09:19:03;;;;;;;14.45;1.48;;;;;;;;;;5013769;28;20113;-40
2024/01/15 09:21:30;;;;;;;8.55;1.23;;;;;;;;;;5014738;28;20058;-40
2024/01/15 09:23:58;;;;;;;10.98;1.30;;;;;;;;;;5014841;28;20115;-40
2024/01/15 09:26:25;;;;;;;12.77;1.25;;;;;;;;;;5014238;28;20089;-41
2024/01/15 09:28:52;;;;;;;12.80;1.20;;;;;;;;;;5014241;28;20038;-40
2024/01/15 09:31:19;;;;;;;11.73;1.13;;;;;;;;;;5014550;28;20026;-40
2024/01/15 09:33:46;;;;;;;7.72;1.60;;;;;;;;;;5014378;28;20037;-40
2024/01/15 09:36:13;;;;;;;10.25;1.60;;;;;;;;;;5014447;28;20488;-40
2024/01/15 09:38:42;;;;;;;8.57;1.75;;;;;;;;;;5014553;28;20033;-41
2024/01/15 09:41:09;;;;;;;11.60;1.48;;;;;;;;;;5014442;28;20357;-40
2024/01/15 09:43:37;;;;;;;10.15;1.33;;;;;;;;;;5014268;28;20057;-40
2024/01/15 09:46:04;;;;;;;12.77;1.83;;;;;;;;;;5014247;28;20547;-40
2024/01/15 09:48:34;;;;;;;13.32;1.20;;;;;;;;;;5014099;28;20056;-41
2024/01/15 09:51:02;;;;;;;8.27;1.50;;;;;;;;;;5014048;28;20037;-40
2024/01/15 09:53:29;;;;;;;37.53;3.88;;;;;;;;;;5014072;28;20468;-40
2024/01/15 09:55:57;;;;;;;43.97;4.68;;;;;;;;;;5014108;28;20022;-40
2024/01/15 09:58:24;;;;;;;42.30;3.67;;;;;;;;;;5013946;28;20480;-40
2024/01/15 10:00:52;;;;;;;32.95;3.72;;;;;;;;;;5013632;28;20037;-40
2024/01/15 10:03:21;;;;;;;35.60;4.15;;;;;;;;;;5012997;28;20041;-40
2024/01/15 10:05:48;;;;;;;46.97;4.07;;;;;;;;;;5010440;28;20038;-41
2024/01/15 10:08:15;;;;;;;32.90;4.07;;;;;;;;;;5013248;28;20030;-41
2024/01/15 10:10:42;;;;;;;28.38;4.00;;;;;;;;;;5010583;28;20030;-40
2024/01/15 10:13:09;;;;;;;37.58;3.92;;;;;;;;;;5013058;28;20025;-40
2024/01/15 10:15:36;;;;;;;29.75;3.92;;;;;;;;;;5013145;28;20061;-40
2024/01/15 10:18:03;;;;;;;32.58;4.28;;;;;;;;;;5010385;28;20025;-40
2024/01/15 10:20:32;;;;;;;30.50;4.07;;;;;;;;;;5012777;28;20034;-41
2024/01/15 10:23:00;;;;;;;30.85;4.35;;;;;;;;;;5012586;28;20028;-41
2024/01/15 10:25:26;;;;;;;33.75;4.10;;;;;;;;;;5012518;28;20045;-40
2024/01/15 10:28:03;;;;;;;21.45;3.15;;;;;;;;;;5012742;28;20046;-40
2024/01/15 10:30:31;;;;;;;31.23;2.88;;;;;;;;;;5009272;28;20164;-40
2024/01/15 10:33:01;;;;;;;20.85;2.88;;;;;;;;;;5012742;28;20026;-42
2024/01/15 10:35:30;;;;;;;27.15;3.13;;;;;;;;;;4995020;28;20077;-40
2024/01/15 10:37:57;;;;;;;19.50;2.30;;;;;;;;;;5010056;28;20026;-40
2024/01/15 10:40:24;;;;;;;21.15;2.35;;;;;;;;;;5012411;28;20061;-41
2024/01/15 10:42:51;;;;;;;28.25;2.92;;;;;;;;;;5012784;28;20041;-41
2024/01/15 10:45:19;;;;;;;27.15;3.03;;;;;;;;;;5013052;28;20053;-41
2024/01/15 10:47:46;;;;;;;27.70;2.47;;;;;;;;;;5013010;28;20087;-41
2024/01/15 10:50:13;;;;;;;27.13;3.38;;;;;;;;;;5013054;28;20038;-41
2024/01/15 10:52:41;;;;;;;15.75;2.33;;;;;;;;;;5013207;28;20036;-41
2024/01/15 10:55:11;;;;;;;10.77;1.83;;;;;;;;;;5012947;28;20034;-41
2024/01/15 10:57:38;;;;;;;12.60;1.67;;;;;;;;;;5012919;28;20034;-41
2024/01/15 11:00:06;;;;;;;18.50;2.10;;;;;;;;;;5012928;28;20050;-42
2024/01/15 11:02:33;;;;;;;19.00;2.20;;;;;;;;;;5012878;28;20100;-41
2024/01/15 11:05:01;;;;;;;21.15;2.10;;;;;;;;;;5012715;28;20033;-41
2024/01/15 11:07:28;;;;;;;15.48;1.80;;;;;;;;;;5012765;28;20476;-41
2024/01/15 11:09:55;;;;;;;19.85;2.95;;;;;;;;;;5012769;28;20026;-41
2024/01/15 11:12:22;;;;;;;24.20;2.78;;;;;;;;;;5012756;28;20495;-41
2024/01/15 11:14:50;;;;;;;28.25;3.20;;;;;;;;;;5012465;28;20029;-41
2024/01/15 11:17:17;;;;;;;27.33;3.10;;;;;;;;;;5012676;28;20053;-43
2024/01/15 11:19:46;;;;;;;25.13;3.17;;;;;;;;;;5012660;28;20049;-41
2024/01/15 11:22:31;;;;;;;24.70;3.20;;;;;;;;;;5012628;28;20041;-41
2024/01/15 11:25:02;;;;;;;34.35;3.38;;;;;;;;;;5012345;28;20036;-41
2024/01/15 11:27:47;;;;;;;22.17;2.80;;;;;;;;;;5012351;28;20061;-41
2024/01/15 11:30:14;;;;;;;30.55;3.00;;;;;;;;;;5012242;28;20083;-42
2024/01/15 11:32:42;;;;;;;23.33;2.58;;;;;;;;;;4992709;28;20567;-41
2024/01/15 11:35:10;;;;;;;26.10;3.30;;;;;;;;;;4992542;28;20042;-41
2024/01/15 11:37:54;;;;;;;24.70;2.53;;;;;;;;;;4992657;28;20157;-41
2024/01/15 11:40:22;;;;;;;26.45;2.88;;;;;;;;;;4992147;28;20431;-41
2024/01/15 11:42:52;;;;;;;30.30;9.80;;;;;;;;;;4992509;28;20033;-41
2024/01/15 11:45:20;;;;;;;43.10;18.20;;;;;;;;;;4992465;28;20393;-41
2024/01/15 11:47:47;;;;;;;50.10;20.75;;;;;;;;;;4992383;28;20124;-41
2024/01/15 11:50:14;;;;;;;36.25;9.30;;;;;;;;;;4992547;28;20428;-41
2024/01/15 11:52:44;;;;;;;35.47;11.10;;;;;;;;;;4992536;28;20030;-41
2024/01/15 11:55:35;;;;;;;28.88;6.00;;;;;;;;;;4992458;28;20090;-41
2024/01/15 11:58:03;;;;;;;26.40;3.83;;;;;;;;;;4992391;28;20034;-41
2024/01/15 12:00:30;;;;;;;19.55;5.03;;;;;;;;;;4992326;28;20100;-41
2024/01/15 12:03:01;;;;;;;45.53;19.83;;;;;;;;;;4992248;28;20038;-41
2024/01/15 12:05:29;;;;;;;60.30;25.60;;;;;;;;;;4992222;28;20034;-41
2024/01/15 12:07:55;;;;;;;44.78;20.05;;;;;;;;;;4992136;28;20038;-41
2024/01/15 12:10:23;;;;;;;34.38;12.77;;;;;;;;;;4992232;28;20404;-41
2024/01/15 12:12:59;;;;;;;16.63;5.32;;;;;;;;;;4992212;28;20038;-41
2024/01/15 12:15:27;;;;;;;15.70;2.60;;;;;;;;;;4992159;28;20026;-42
2024/01/15 12:17:57;;;;;;;15.20;1.98;;;;;;;;;;4992260;28;20030;-41
2024/01/15 12:20:25;;;;;;;12.95;1.60;;;;;;;;;;4992175;28;20034;-41
2024/01/15 12:22:52;;;;;;;12.18;2.58;;;;;;;;;;4992348;28;20030;-41
2024/01/15 12:25:19;;;;;;;10.60;3.20;;;;;;;;;;5011730;28;20423;-41
2024/01/15 12:27:46;;;;;;;11.07;2.40;;;;;;;;;;5011597;28;20109;-41
2024/01/15 12:30:15;;;;;;;13.45;1.73;;;;;;;;;;5011782;28;20029;-41
2024/01/15 12:32:46;;;;;;;6.88;1.67;;;;;;;;;;5011829;28;20116;-41
2024/01/15 12:35:18;;;;;;;33.22;2.88;;;;;;;;;;5011447;28;20057;-41
2024/01/15 12:37:47;;;;;;;16.83;2.20;;;;;;;;;;5011676;28;20037;-41
2024/01/15 12:40:15;;;;;;;12.90;1.73;;;;;;;;;;5011508;28;20068;-41
2024/01/15 12:42:42;;;;;;;9.27;1.33;;;;;;;;;;5011707;28;20440;-41
2024/01/15 12:45:10;;;;;;;10.10;1.10;;;;;;;;;;5011508;28;20507;-41
2024/01/15 12:47:37;;;;;;;6.50;0.88;;;;;;;;;;5011154;28;20030;-41
2024/01/15 12:50:08;;;;;;;15.98;1.30;;;;;;;;;;5011499;28;20092;-41
2024/01/15 12:52:35;;;;;;;7.97;0.82;;;;;;;;;;5011760;28;20484;-41
2024/01/15 12:55:02;;;;;;;11.18;0.90;;;;;;;;;;5014372;28;20046;-41
2024/01/15 12:57:29;;;;;;;4.50;0.70;;;;;;;;;;5014554;28;20030;-41
2024/01/15 12:59:56;;;;;;;13.82;1.20;;;;;;;;;;5014302;28;20030;-42
2024/01/15 13:02:23;;;;;;;16.08;1.50;;;;;;;;;;4995518;28;20034;-41
2024/01/15 13:04:50;;;;;;;17.08;2.03;;;;;;;;;;4995248;28;20098;-41
2024/01/15 13:07:17;;;;;;;15.18;2.10;;;;;;;;;;4998152;28;20045;-41
2024/01/15 13:09:44;;;;;;;13.50;1.63;;;;;;;;;;5004772;28;20046;-41
2024/01/15 13:12:11;;;;;;;10.55;1.92;;;;;;;;;;5006069;28;20037;-41
2024/01/15 13:14:38;;;;;;;11.63;1.58;;;;;;;;;;5014104;28;20034;-41
2024/01/15 13:17:06;;;;;;;21.27;2.25;;;;;;;;;;5014321;28;20026;-41
2024/01/15 13:19:33;;;;;;;14.00;2.00;;;;;;;;;;5004050;28;20046;-41
2024/01/15 13:22:00;;;;;;;10.90;1.90;;;;;;;;;;5003863;28;20404;-41
2024/01/15 13:24:27;;;;;;;11.43;1.50;;;;;;;;;;5004627;28;20026;-41
2024/01/15 13:26:54;;;;;;;10.68;1.88;;;;;;;;;;5003736;28;20054;-41
2024/01/15 13:29:21;;;;;;;13.75;1.38;;;;;;;;;;5007134;28;20034;-43
2024/01/15 13:31:49;;;;;;;4.43;1.13;;;;;;;;;;4994816;28;20026;-44
2024/01/15 13:34:15;;;;;;;9.52;1.20;;;;;;;;;;5010399;28;20500;-41
2024/01/15 13:36:42;;;;;;;8.73;1.40;;;;;;;;;;5003496;28;20038;-42
2024/01/15 13:39:09;;;;;;;7.82;1.45;;;;;;;;;;5006818;28;20046;-42
2024/01/15 13:41:37;;;;;;;11.18;1.38;;;;;;;;;;5013851;28;20388;-42
2024/01/15 13:44:04;;;;;;;6.95;1.25;;;;;;;;;;5013740;28;20037;-41
2024/01/15 13:46:31;;;;;;;4.82;1.17;;;;;;;;;;5013857;28;20058;-42
2024/01/15 13:48:58;;;;;;;8.50;1.23;;;;;;;;;;5013930;28;20145;-42
2024/01/15 13:51:25;;;;;;;8.32;1.23;;;;;;;;;;5010498;28;20058;-41
2024/01/15 13:53:52;;;;;;;5.72;1.10;;;;;;;;;;5001059;28;20041;-42
2024/01/15 13:56:20;;;;;;;7.45;1.08;;;;;;;;;;5005349;28;20026;-42
2024/01/15 13:58:48;;;;;;;6.38;1.15;;;;;;;;;;5003970;28;20420;-43
2024/01/15 14:01:15;;;;;;;6.40;1.35;;;;;;;;;;5007201;28;20089;-42
2024/01/15 14:03:41;;;;;;;4.80;0.98;;;;;;;;;;5002485;28;20048;-42
2024/01/15 14:06:08;;;;;;;6.55;1.20;;;;;;;;;;5003040;28;20476;-42
2024/01/15 14:08:36;;;;;;;10.45;1.20;;;;;;;;;;5004161;28;20073;-42
2024/01/15 14:11:05;;;;;;;6.28;0.90;;;;;;;;;;5001491;28;20026;-42
2024/01/15 14:13:33;;;;;;;7.88;1.30;;;;;;;;;;5002690;28;20037;-42
2024/01/15 14:16:00;;;;;;;9.60;1.38;;;;;;;;;;4999654;28;20069;-42
2024/01/15 14:18:27;;;;;;;8.15;1.13;;;;;;;;;;5002413;28;20033;-42
2024/01/15 14:20:54;;;;;;;8.02;1.52;;;;;;;;;;5011185;28;20026;-42
2024/01/15 14:23:22;;;;;;;7.82;1.50;;;;;;;;;;5012104;28;20104;-42
2024/01/15 14:25:49;;;;;;;10.73;1.40;;;;;;;;;;4995346;28;20356;-42
2024/01/15 14:28:16;;;;;;;9.85;1.35;;;;;;;;;;5012917;28;20498;-43